sensor_id;sensor_type;location;lat;lon;timestamp;P1;durP1;ratioP1;P2;durP2;ratioP2
2706;SDS011;7819;48.046;7.642;2023-04-03T00:00:02;4.00;;;3.50;;
2706;SDS011;7819;48.046;7.642;2023-04-03T00:02:28;3.93;;;3.63;;
2706;SDS011;7819;48.046;7.642;2023-04-03T00:04:53;4.40;;;3.47;;
2706;SDS011;7819;48.046;7.642;2023-04-03T00:07:18;3.97;;;3.67;;
2706;SDS011;7819;48.046;7.642;2023-04-03T00:09:43;4.67;;;3.57;;
2706;SDS011;7819;48.046;7.642;2023-04-03T00:12:08;3.93;;;3.60;;
2706;SDS011;7819;48.046;7.642;2023-04-03T00:14:34;3.20;;;2.90;;
2706;SDS011;7819;48.046;7.642;2023-04-03T00:16:59;3.90;;;3.50;;
2706;SDS011;7819;48.046;7.642;2023-04-03T00:19:24;3.60;;;3.30;;
2706;SDS011;7819;48.046;7.642;2023-04-03T00:21:49;4.50;;;3.20;;
2706;SDS011;7819;48.046;7.642;2023-04-03T00:24:15;4.20;;;3.90;;
2706;SDS011;7819;48.046;7.642;2023-04-03T00:26:40;3.33;;;3.03;;
2706;SDS011;7819;48.046;7.642;2023-04-03T00:29:05;6.87;;;3.10;;
2706;SDS011;7819;48.046;7.642;2023-04-03T00:31:31;4.13;;;3.53;;
2706;SDS011;7819;48.046;7.642;2023-04-03T00:33:56;3.50;;;3.20;;
2706;SDS011;7819;48.046;7.642;2023-04-03T00:36:21;4.33;;;3.17;;
2706;SDS011;7819;48.046;7.642;2023-04-03T00:38:46;3.70;;;3.40;;
2706;SDS011;7819;48.046;7.642;2023-04-03T00:41:11;3.33;;;3.03;;
2706;SDS011;7819;48.046;7.642;2023-04-03T00:43:37;3.50;;;3.20;;
2706;SDS011;7819;48.046;7.642;2023-04-03T00:46:02;3.60;;;3.30;;
2706;SDS011;7819;48.046;7.642;2023-04-03T00:50:52;4.10;;;3.70;;
2706;SDS011;7819;48.046;7.642;2023-04-03T00:53:19;3.37;;;2.97;;
2706;SDS011;7819;48.046;7.642;2023-04-03T00:55:47;3.03;;;2.83;;
2706;SDS011;7819;48.046;7.642;2023-04-03T00:58:12;3.23;;;2.90;;
2706;SDS011;7819;48.046;7.642;2023-04-03T01:00:38;3.40;;;2.87;;
2706;SDS011;7819;48.046;7.642;2023-04-03T01:03:05;4.37;;;2.93;;
2706;SDS011;7819;48.046;7.642;2023-04-03T01:05:30;5.90;;;3.60;;
2706;SDS011;7819;48.046;7.642;2023-04-03T01:07:55;3.40;;;2.87;;
2706;SDS011;7819;48.046;7.642;2023-04-03T01:10:21;4.00;;;3.47;;
2706;SDS011;7819;48.046;7.642;2023-04-03T01:12:48;3.30;;;2.77;;
2706;SDS011;7819;48.046;7.642;2023-04-03T01:17:40;3.60;;;3.30;;
2706;SDS011;7819;48.046;7.642;2023-04-03T01:25:51;3.97;;;3.27;;
2706;SDS011;7819;48.046;7.642;2023-04-03T01:28:18;4.63;;;3.37;;
2706;SDS011;7819;48.046;7.642;2023-04-03T01:33:11;5.77;;;2.90;;
2706;SDS011;7819;48.046;7.642;2023-04-03T01:35:37;3.03;;;2.73;;
2706;SDS011;7819;48.046;7.642;2023-04-03T01:38:02;3.70;;;2.80;;
2706;SDS011;7819;48.046;7.642;2023-04-03T01:40:27;3.80;;;2.93;;
2706;SDS011;7819;48.046;7.642;2023-04-03T01:42:53;3.77;;;3.30;;
2706;SDS011;7819;48.046;7.642;2023-04-03T01:45:18;3.43;;;3.10;;
2706;SDS011;7819;48.046;7.642;2023-04-03T01:47:43;5.33;;;2.70;;
2706;SDS011;7819;48.046;7.642;2023-04-03T01:50:08;3.07;;;2.63;;
2706;SDS011;7819;48.046;7.642;2023-04-03T01:52:33;3.17;;;2.80;;
2706;SDS011;7819;48.046;7.642;2023-04-03T01:54:58;2.93;;;2.63;;
2706;SDS011;7819;48.046;7.642;2023-04-03T01:57:24;3.47;;;3.17;;
2706;SDS011;7819;48.046;7.642;2023-04-03T01:59:49;3.90;;;3.27;;
2706;SDS011;7819;48.046;7.642;2023-04-03T02:02:14;3.37;;;3.07;;
2706;SDS011;7819;48.046;7.642;2023-04-03T02:04:40;4.33;;;3.30;;
2706;SDS011;7819;48.046;7.642;2023-04-03T02:07:05;3.00;;;2.70;;
2706;SDS011;7819;48.046;7.642;2023-04-03T02:09:30;3.53;;;3.23;;
2706;SDS011;7819;48.046;7.642;2023-04-03T02:11:55;3.13;;;2.53;;
2706;SDS011;7819;48.046;7.642;2023-04-03T02:14:20;7.90;;;3.30;;
2706;SDS011;7819;48.046;7.642;2023-04-03T02:16:48;3.87;;;3.57;;
2706;SDS011;7819;48.046;7.642;2023-04-03T02:19:13;3.17;;;2.87;;
2706;SDS011;7819;48.046;7.642;2023-04-03T02:21:38;2.70;;;2.47;;
2706;SDS011;7819;48.046;7.642;2023-04-03T02:24:04;3.10;;;2.87;;
2706;SDS011;7819;48.046;7.642;2023-04-03T02:26:30;3.93;;;3.47;;
2706;SDS011;7819;48.046;7.642;2023-04-03T02:28:55;5.07;;;2.90;;
2706;SDS011;7819;48.046;7.642;2023-04-03T02:31:20;3.47;;;3.17;;
2706;SDS011;7819;48.046;7.642;2023-04-03T02:33:46;3.40;;;3.10;;
2706;SDS011;7819;48.046;7.642;2023-04-03T02:36:11;5.70;;;3.40;;
2706;SDS011;7819;48.046;7.642;2023-04-03T02:38:36;3.30;;;2.77;;
2706;SDS011;7819;48.046;7.642;2023-04-03T02:41:11;2.93;;;2.63;;
2706;SDS011;7819;48.046;7.642;2023-04-03T02:43:36;3.30;;;3.00;;
2706;SDS011;7819;48.046;7.642;2023-04-03T02:46:02;3.13;;;2.83;;
2706;SDS011;7819;48.046;7.642;2023-04-03T02:48:27;2.97;;;2.77;;
2706;SDS011;7819;48.046;7.642;2023-04-03T02:50:52;3.93;;;3.13;;
2706;SDS011;7819;48.046;7.642;2023-04-03T02:53:18;3.07;;;2.70;;
2706;SDS011;7819;48.046;7.642;2023-04-03T02:55:43;3.10;;;2.80;;
2706;SDS011;7819;48.046;7.642;2023-04-03T02:58:09;3.50;;;3.20;;
2706;SDS011;7819;48.046;7.642;2023-04-03T03:00:34;3.23;;;2.93;;
2706;SDS011;7819;48.046;7.642;2023-04-03T03:02:59;3.60;;;3.17;;
2706;SDS011;7819;48.046;7.642;2023-04-03T03:05:25;5.03;;;3.50;;
2706;SDS011;7819;48.046;7.642;2023-04-03T03:07:51;3.30;;;2.80;;
2706;SDS011;7819;48.046;7.642;2023-04-03T03:10:16;3.20;;;2.93;;
2706;SDS011;7819;48.046;7.642;2023-04-03T03:12:41;4.53;;;3.20;;
2706;SDS011;7819;48.046;7.642;2023-04-03T03:15:07;3.30;;;3.00;;
2706;SDS011;7819;48.046;7.642;2023-04-03T03:17:32;6.60;;;3.77;;
2706;SDS011;7819;48.046;7.642;2023-04-03T03:19:57;3.60;;;3.30;;
2706;SDS011;7819;48.046;7.642;2023-04-03T03:22:23;4.07;;;3.33;;
2706;SDS011;7819;48.046;7.642;2023-04-03T03:24:48;4.83;;;4.33;;
2706;SDS011;7819;48.046;7.642;2023-04-03T03:27:13;4.30;;;2.90;;
2706;SDS011;7819;48.046;7.642;2023-04-03T03:29:38;3.47;;;3.17;;
2706;SDS011;7819;48.046;7.642;2023-04-03T03:32:03;3.70;;;3.40;;
2706;SDS011;7819;48.046;7.642;2023-04-03T03:34:29;2.97;;;2.73;;
2706;SDS011;7819;48.046;7.642;2023-04-03T03:36:54;3.03;;;2.70;;
2706;SDS011;7819;48.046;7.642;2023-04-03T03:39:20;3.97;;;2.90;;
2706;SDS011;7819;48.046;7.642;2023-04-03T03:41:46;3.40;;;3.10;;
2706;SDS011;7819;48.046;7.642;2023-04-03T03:44:11;3.67;;;3.30;;
2706;SDS011;7819;48.046;7.642;2023-04-03T03:46:36;3.50;;;2.77;;
2706;SDS011;7819;48.046;7.642;2023-04-03T03:49:01;3.57;;;3.27;;
2706;SDS011;7819;48.046;7.642;2023-04-03T03:51:26;2.97;;;2.73;;
2706;SDS011;7819;48.046;7.642;2023-04-03T03:53:52;3.33;;;2.97;;
2706;SDS011;7819;48.046;7.642;2023-04-03T03:56:17;4.03;;;3.73;;
2706;SDS011;7819;48.046;7.642;2023-04-03T03:58:42;4.00;;;3.10;;
2706;SDS011;7819;48.046;7.642;2023-04-03T04:01:07;2.97;;;2.77;;
2706;SDS011;7819;48.046;7.642;2023-04-03T04:03:32;3.03;;;2.73;;
2706;SDS011;7819;48.046;7.642;2023-04-03T04:05:58;4.07;;;3.63;;
2706;SDS011;7819;48.046;7.642;2023-04-03T04:08:23;3.10;;;2.80;;
2706;SDS011;7819;48.046;7.642;2023-04-03T04:10:48;6.37;;;3.67;;
2706;SDS011;7819;48.046;7.642;2023-04-03T04:13:13;3.83;;;3.53;;
2706;SDS011;7819;48.046;7.642;2023-04-03T04:15:39;4.20;;;3.80;;
2706;SDS011;7819;48.046;7.642;2023-04-03T04:18:05;3.30;;;3.00;;
2706;SDS011;7819;48.046;7.642;2023-04-03T04:20:30;3.47;;;3.03;;
2706;SDS011;7819;48.046;7.642;2023-04-03T04:22:55;5.00;;;2.87;;
2706;SDS011;7819;48.046;7.642;2023-04-03T04:25:20;4.20;;;3.80;;
2706;SDS011;7819;48.046;7.642;2023-04-03T04:27:45;3.40;;;2.70;;
2706;SDS011;7819;48.046;7.642;2023-04-03T04:30:11;3.83;;;3.33;;
2706;SDS011;7819;48.046;7.642;2023-04-03T04:32:37;3.10;;;2.80;;
2706;SDS011;7819;48.046;7.642;2023-04-03T04:35:02;3.87;;;3.33;;
2706;SDS011;7819;48.046;7.642;2023-04-03T04:37:28;5.80;;;2.80;;
2706;SDS011;7819;48.046;7.642;2023-04-03T04:39:53;6.20;;;3.27;;
2706;SDS011;7819;48.046;7.642;2023-04-03T04:42:19;4.43;;;3.27;;
2706;SDS011;7819;48.046;7.642;2023-04-03T04:44:44;9.97;;;3.53;;
2706;SDS011;7819;48.046;7.642;2023-04-03T04:47:09;3.37;;;3.07;;
2706;SDS011;7819;48.046;7.642;2023-04-03T04:49:35;3.40;;;3.10;;
2706;SDS011;7819;48.046;7.642;2023-04-03T04:52:00;3.73;;;3.10;;
2706;SDS011;7819;48.046;7.642;2023-04-03T04:54:25;3.43;;;3.13;;
2706;SDS011;7819;48.046;7.642;2023-04-03T04:56:50;3.87;;;3.57;;
2706;SDS011;7819;48.046;7.642;2023-04-03T04:59:15;7.20;;;4.00;;
2706;SDS011;7819;48.046;7.642;2023-04-03T05:01:41;3.93;;;3.57;;
2706;SDS011;7819;48.046;7.642;2023-04-03T05:04:06;3.20;;;2.83;;
2706;SDS011;7819;48.046;7.642;2023-04-03T05:06:31;3.90;;;3.50;;
2706;SDS011;7819;48.046;7.642;2023-04-03T05:08:57;6.00;;;3.90;;
2706;SDS011;7819;48.046;7.642;2023-04-03T05:11:22;3.77;;;3.40;;
2706;SDS011;7819;48.046;7.642;2023-04-03T05:13:47;4.23;;;3.60;;
2706;SDS011;7819;48.046;7.642;2023-04-03T05:16:12;4.30;;;2.57;;
2706;SDS011;7819;48.046;7.642;2023-04-03T05:18:37;4.67;;;3.57;;
2706;SDS011;7819;48.046;7.642;2023-04-03T05:21:03;3.83;;;3.43;;
2706;SDS011;7819;48.046;7.642;2023-04-03T05:23:28;4.80;;;3.23;;
2706;SDS011;7819;48.046;7.642;2023-04-03T05:25:53;2.97;;;2.73;;
2706;SDS011;7819;48.046;7.642;2023-04-03T05:28:18;4.83;;;3.10;;
2706;SDS011;7819;48.046;7.642;2023-04-03T05:30:43;3.30;;;2.73;;
2706;SDS011;7819;48.046;7.642;2023-04-03T05:33:09;3.10;;;2.90;;
2706;SDS011;7819;48.046;7.642;2023-04-03T05:35:35;3.73;;;3.43;;
2706;SDS011;7819;48.046;7.642;2023-04-03T05:38:00;3.60;;;3.30;;
2706;SDS011;7819;48.046;7.642;2023-04-03T05:40:25;3.50;;;3.20;;
2706;SDS011;7819;48.046;7.642;2023-04-03T05:42:51;2.90;;;2.70;;
2706;SDS011;7819;48.046;7.642;2023-04-03T05:45:16;3.70;;;2.87;;
2706;SDS011;7819;48.046;7.642;2023-04-03T05:47:41;4.00;;;3.30;;
2706;SDS011;7819;48.046;7.642;2023-04-03T05:50:06;3.77;;;3.10;;
2706;SDS011;7819;48.046;7.642;2023-04-03T05:52:36;3.47;;;3.17;;
2706;SDS011;7819;48.046;7.642;2023-04-03T05:55:01;3.43;;;3.13;;
2706;SDS011;7819;48.046;7.642;2023-04-03T05:57:27;3.80;;;3.50;;
2706;SDS011;7819;48.046;7.642;2023-04-03T05:59:52;4.17;;;3.77;;
2706;SDS011;7819;48.046;7.642;2023-04-03T06:02:18;3.60;;;3.30;;
2706;SDS011;7819;48.046;7.642;2023-04-03T06:04:44;4.17;;;3.50;;
2706;SDS011;7819;48.046;7.642;2023-04-03T06:07:13;4.33;;;3.60;;
2706;SDS011;7819;48.046;7.642;2023-04-03T06:09:38;4.70;;;3.87;;
2706;SDS011;7819;48.046;7.642;2023-04-03T06:12:04;4.20;;;3.80;;
2706;SDS011;7819;48.046;7.642;2023-04-03T06:14:29;4.10;;;3.70;;
2706;SDS011;7819;48.046;7.642;2023-04-03T06:16:55;4.27;;;3.87;;
2706;SDS011;7819;48.046;7.642;2023-04-03T06:19:20;4.07;;;3.67;;
2706;SDS011;7819;48.046;7.642;2023-04-03T06:21:45;3.90;;;3.60;;
2706;SDS011;7819;48.046;7.642;2023-04-03T06:24:12;5.80;;;4.20;;
2706;SDS011;7819;48.046;7.642;2023-04-03T06:26:38;4.17;;;3.63;;
2706;SDS011;7819;48.046;7.642;2023-04-03T06:29:03;5.13;;;3.57;;
2706;SDS011;7819;48.046;7.642;2023-04-03T06:31:29;3.60;;;3.13;;
2706;SDS011;7819;48.046;7.642;2023-04-03T06:33:54;4.30;;;3.80;;
2706;SDS011;7819;48.046;7.642;2023-04-03T06:36:20;4.53;;;3.57;;
2706;SDS011;7819;48.046;7.642;2023-04-03T06:38:46;4.80;;;4.20;;
2706;SDS011;7819;48.046;7.642;2023-04-03T06:41:11;4.63;;;3.70;;
2706;SDS011;7819;48.046;7.642;2023-04-03T06:43:36;4.97;;;4.07;;
2706;SDS011;7819;48.046;7.642;2023-04-03T06:46:02;4.17;;;3.77;;
2706;SDS011;7819;48.046;7.642;2023-04-03T06:48:27;4.23;;;3.90;;
2706;SDS011;7819;48.046;7.642;2023-04-03T06:50:52;4.03;;;3.37;;
2706;SDS011;7819;48.046;7.642;2023-04-03T06:53:17;4.30;;;3.90;;
2706;SDS011;7819;48.046;7.642;2023-04-03T06:55:43;4.57;;;3.60;;
2706;SDS011;7819;48.046;7.642;2023-04-03T06:58:08;4.03;;;3.63;;
2706;SDS011;7819;48.046;7.642;2023-04-03T07:00:34;4.87;;;3.87;;
2706;SDS011;7819;48.046;7.642;2023-04-03T07:02:59;4.47;;;3.97;;
2706;SDS011;7819;48.046;7.642;2023-04-03T07:05:24;3.80;;;3.50;;
2706;SDS011;7819;48.046;7.642;2023-04-03T07:07:50;4.00;;;3.50;;
2706;SDS011;7819;48.046;7.642;2023-04-03T07:10:15;3.90;;;3.50;;
2706;SDS011;7819;48.046;7.642;2023-04-03T07:12:41;4.70;;;4.13;;
2706;SDS011;7819;48.046;7.642;2023-04-03T07:15:06;4.10;;;3.70;;
2706;SDS011;7819;48.046;7.642;2023-04-03T07:17:31;4.63;;;3.97;;
2706;SDS011;7819;48.046;7.642;2023-04-03T07:19:57;3.33;;;3.00;;
2706;SDS011;7819;48.046;7.642;2023-04-03T07:22:22;4.10;;;3.70;;
2706;SDS011;7819;48.046;7.642;2023-04-03T07:24:47;4.10;;;3.70;;
2706;SDS011;7819;48.046;7.642;2023-04-03T07:27:12;5.30;;;3.27;;
2706;SDS011;7819;48.046;7.642;2023-04-03T07:29:38;4.37;;;3.40;;
2706;SDS011;7819;48.046;7.642;2023-04-03T07:32:03;4.20;;;3.80;;
2706;SDS011;7819;48.046;7.642;2023-04-03T07:34:29;3.70;;;3.40;;
2706;SDS011;7819;48.046;7.642;2023-04-03T07:36:55;4.00;;;3.60;;
2706;SDS011;7819;48.046;7.642;2023-04-03T07:39:21;3.20;;;2.90;;
2706;SDS011;7819;48.046;7.642;2023-04-03T07:41:46;3.57;;;3.30;;
2706;SDS011;7819;48.046;7.642;2023-04-03T07:44:11;3.87;;;3.03;;
2706;SDS011;7819;48.046;7.642;2023-04-03T07:46:37;3.40;;;3.10;;
2706;SDS011;7819;48.046;7.642;2023-04-03T07:49:03;2.53;;;2.30;;
2706;SDS011;7819;48.046;7.642;2023-04-03T07:51:28;4.10;;;3.70;;
2706;SDS011;7819;48.046;7.642;2023-04-03T07:53:54;4.13;;;2.87;;
2706;SDS011;7819;48.046;7.642;2023-04-03T07:56:20;3.10;;;2.80;;
2706;SDS011;7819;48.046;7.642;2023-04-03T07:58:45;2.67;;;2.47;;
2706;SDS011;7819;48.046;7.642;2023-04-03T08:01:11;3.00;;;2.50;;
2706;SDS011;7819;48.046;7.642;2023-04-03T08:03:36;2.50;;;2.30;;
2706;SDS011;7819;48.046;7.642;2023-04-03T08:06:03;3.33;;;2.90;;
2706;SDS011;7819;48.046;7.642;2023-04-03T08:08:29;3.20;;;2.90;;
2706;SDS011;7819;48.046;7.642;2023-04-03T08:10:54;3.37;;;3.00;;
2706;SDS011;7819;48.046;7.642;2023-04-03T08:13:20;4.47;;;3.47;;
2706;SDS011;7819;48.046;7.642;2023-04-03T08:15:45;2.73;;;2.53;;
2706;SDS011;7819;48.046;7.642;2023-04-03T08:18:11;3.53;;;2.53;;
2706;SDS011;7819;48.046;7.642;2023-04-03T08:20:37;3.07;;;2.87;;
2706;SDS011;7819;48.046;7.642;2023-04-03T08:23:03;4.10;;;2.80;;
2706;SDS011;7819;48.046;7.642;2023-04-03T08:25:28;2.17;;;1.97;;
2706;SDS011;7819;48.046;7.642;2023-04-03T08:27:54;2.40;;;2.20;;
2706;SDS011;7819;48.046;7.642;2023-04-03T08:30:20;2.90;;;2.40;;
2706;SDS011;7819;48.046;7.642;2023-04-03T08:32:45;2.87;;;2.50;;
2706;SDS011;7819;48.046;7.642;2023-04-03T08:35:10;2.43;;;2.23;;
2706;SDS011;7819;48.046;7.642;2023-04-03T08:37:36;2.73;;;2.30;;
2706;SDS011;7819;48.046;7.642;2023-04-03T08:40:02;2.20;;;1.90;;
2706;SDS011;7819;48.046;7.642;2023-04-03T08:45:10;2.60;;;2.40;;
2706;SDS011;7819;48.046;7.642;2023-04-03T08:50:04;5.47;;;4.95;;
2706;SDS011;7819;48.046;7.642;2023-04-03T08:58:05;2.77;;;2.57;;
2706;SDS011;7819;48.046;7.642;2023-04-03T09:00:47;4.53;;;3.03;;
2706;SDS011;7819;48.046;7.642;2023-04-03T09:03:14;5.30;;;4.80;;
2706;SDS011;7819;48.046;7.642;2023-04-03T09:05:45;3.13;;;2.70;;
2706;SDS011;7819;48.046;7.642;2023-04-03T09:08:28;4.57;;;3.87;;
2706;SDS011;7819;48.046;7.642;2023-04-03T09:11:41;3.30;;;3.00;;
2706;SDS011;7819;48.046;7.642;2023-04-03T09:13:42;2.87;;;2.67;;
2706;SDS011;7819;48.046;7.642;2023-04-03T09:16:25;3.60;;;3.30;;
2706;SDS011;7819;48.046;7.642;2023-04-03T09:18:54;2.93;;;2.57;;
2706;SDS011;7819;48.046;7.642;2023-04-03T09:21:25;2.43;;;2.10;;
2706;SDS011;7819;48.046;7.642;2023-04-03T09:23:53;3.50;;;2.60;;
2706;SDS011;7819;48.046;7.642;2023-04-03T09:26:24;2.67;;;2.47;;
2706;SDS011;7819;48.046;7.642;2023-04-03T09:28:54;3.00;;;2.60;;
2706;SDS011;7819;48.046;7.642;2023-04-03T09:31:23;3.17;;;2.87;;
2706;SDS011;7819;48.046;7.642;2023-04-03T09:33:53;3.30;;;2.67;;
2706;SDS011;7819;48.046;7.642;2023-04-03T09:39:07;2.87;;;2.37;;
2706;SDS011;7819;48.046;7.642;2023-04-03T09:41:35;2.73;;;2.53;;
2706;SDS011;7819;48.046;7.642;2023-04-03T09:44:00;2.70;;;2.50;;
2706;SDS011;7819;48.046;7.642;2023-04-03T09:49:01;3.00;;;2.70;;
2706;SDS011;7819;48.046;7.642;2023-04-03T09:51:27;3.03;;;2.73;;
2706;SDS011;7819;48.046;7.642;2023-04-03T09:53:53;3.00;;;2.80;;
2706;SDS011;7819;48.046;7.642;2023-04-03T10:01:28;2.60;;;2.40;;
2706;SDS011;7819;48.046;7.642;2023-04-03T10:04:10;3.57;;;2.50;;
2706;SDS011;7819;48.046;7.642;2023-04-03T10:06:37;3.00;;;2.70;;
2706;SDS011;7819;48.046;7.642;2023-04-03T10:09:06;5.23;;;3.13;;
2706;SDS011;7819;48.046;7.642;2023-04-03T10:11:44;5.27;;;3.77;;
2706;SDS011;7819;48.046;7.642;2023-04-03T10:14:21;2.63;;;2.40;;
2706;SDS011;7819;48.046;7.642;2023-04-03T10:16:48;2.77;;;2.43;;
2706;SDS011;7819;48.046;7.642;2023-04-03T10:19:21;2.33;;;2.13;;
2706;SDS011;7819;48.046;7.642;2023-04-03T10:21:55;2.63;;;2.43;;
2706;SDS011;7819;48.046;7.642;2023-04-03T10:27:11;2.60;;;2.40;;
2706;SDS011;7819;48.046;7.642;2023-04-03T10:29:40;2.77;;;2.57;;
2706;SDS011;7819;48.046;7.642;2023-04-03T10:32:16;2.50;;;2.20;;
2706;SDS011;7819;48.046;7.642;2023-04-03T10:34:47;1.80;;;1.50;;
2706;SDS011;7819;48.046;7.642;2023-04-03T10:37:24;2.60;;;2.00;;
2706;SDS011;7819;48.046;7.642;2023-04-03T10:39:56;1.83;;;1.73;;
2706;SDS011;7819;48.046;7.642;2023-04-03T10:47:34;2.10;;;1.70;;
2706;SDS011;7819;48.046;7.642;2023-04-03T10:50:02;2.50;;;1.90;;
2706;SDS011;7819;48.046;7.642;2023-04-03T10:52:37;1.87;;;1.77;;
2706;SDS011;7819;48.046;7.642;2023-04-03T10:57:30;1.97;;;1.77;;
2706;SDS011;7819;48.046;7.642;2023-04-03T11:00:05;2.00;;;1.60;;
2706;SDS011;7819;48.046;7.642;2023-04-03T11:02:39;2.50;;;1.77;;
2706;SDS011;7819;48.046;7.642;2023-04-03T11:05:42;2.23;;;1.93;;
2706;SDS011;7819;48.046;7.642;2023-04-03T11:07:59;1.80;;;1.20;;
2706;SDS011;7819;48.046;7.642;2023-04-03T11:13:02;2.10;;;1.60;;
2706;SDS011;7819;48.046;7.642;2023-04-03T11:15:31;1.97;;;1.77;;
2706;SDS011;7819;48.046;7.642;2023-04-03T11:18:00;1.77;;;1.67;;
2706;SDS011;7819;48.046;7.642;2023-04-03T11:20:26;2.40;;;1.50;;
2706;SDS011;7819;48.046;7.642;2023-04-03T11:22:57;2.90;;;2.00;;
2706;SDS011;7819;48.046;7.642;2023-04-03T11:25:24;1.70;;;1.60;;
2706;SDS011;7819;48.046;7.642;2023-04-03T11:27:57;2.63;;;1.90;;
2706;SDS011;7819;48.046;7.642;2023-04-03T11:32:59;1.83;;;1.63;;
2706;SDS011;7819;48.046;7.642;2023-04-03T11:35:27;2.67;;;2.07;;
2706;SDS011;7819;48.046;7.642;2023-04-03T11:37:52;2.47;;;2.27;;
2706;SDS011;7819;48.046;7.642;2023-04-03T11:40:22;2.87;;;1.93;;
2706;SDS011;7819;48.046;7.642;2023-04-03T11:42:51;1.73;;;1.53;;
2706;SDS011;7819;48.046;7.642;2023-04-03T11:45:22;2.80;;;2.50;;
2706;SDS011;7819;48.046;7.642;2023-04-03T11:47:52;3.00;;;2.77;;
2706;SDS011;7819;48.046;7.642;2023-04-03T11:52:59;2.93;;;1.90;;
2706;SDS011;7819;48.046;7.642;2023-04-03T12:05:57;2.40;;;2.00;;
2706;SDS011;7819;48.046;7.642;2023-04-03T12:13:39;3.00;;;2.10;;
2706;SDS011;7819;48.046;7.642;2023-04-03T12:16:27;2.87;;;1.97;;
2706;SDS011;7819;48.046;7.642;2023-04-03T12:21:17;3.27;;;2.97;;
2706;SDS011;7819;48.046;7.642;2023-04-03T12:26:50;3.50;;;2.17;;
2706;SDS011;7819;48.046;7.642;2023-04-03T12:29:21;2.57;;;1.77;;
2706;SDS011;7819;48.046;7.642;2023-04-03T12:37:03;2.07;;;1.87;;
2706;SDS011;7819;48.046;7.642;2023-04-03T12:47:43;2.30;;;1.70;;
2706;SDS011;7819;48.046;7.642;2023-04-03T12:50:23;2.33;;;1.90;;
2706;SDS011;7819;48.046;7.642;2023-04-03T12:52:51;4.13;;;2.10;;
2706;SDS011;7819;48.046;7.642;2023-04-03T12:55:18;4.03;;;1.80;;
2706;SDS011;7819;48.046;7.642;2023-04-03T12:57:43;4.60;;;1.80;;
2706;SDS011;7819;48.046;7.642;2023-04-03T13:00:19;3.40;;;2.30;;
2706;SDS011;7819;48.046;7.642;2023-04-03T13:02:44;1.73;;;1.40;;
2706;SDS011;7819;48.046;7.642;2023-04-03T13:05:13;2.30;;;2.10;;
2706;SDS011;7819;48.046;7.642;2023-04-03T13:07:40;2.23;;;1.60;;
2706;SDS011;7819;48.046;7.642;2023-04-03T13:12:32;2.30;;;1.97;;
2706;SDS011;7819;48.046;7.642;2023-04-03T13:14:59;2.63;;;2.00;;
2706;SDS011;7819;48.046;7.642;2023-04-03T13:17:25;2.10;;;1.60;;
2706;SDS011;7819;48.046;7.642;2023-04-03T13:19:50;2.37;;;2.07;;
2706;SDS011;7819;48.046;7.642;2023-04-03T13:24:49;2.25;;;2.05;;
2706;SDS011;7819;48.046;7.642;2023-04-03T13:27:15;2.23;;;1.93;;
2706;SDS011;7819;48.046;7.642;2023-04-03T13:29:41;3.87;;;2.57;;
2706;SDS011;7819;48.046;7.642;2023-04-03T13:32:06;1.93;;;1.73;;
2706;SDS011;7819;48.046;7.642;2023-04-03T13:34:36;3.30;;;2.17;;
2706;SDS011;7819;48.046;7.642;2023-04-03T13:37:02;2.77;;;2.00;;
2706;SDS011;7819;48.046;7.642;2023-04-03T13:39:33;4.90;;;2.00;;
2706;SDS011;7819;48.046;7.642;2023-04-03T13:42:00;4.37;;;2.10;;
2706;SDS011;7819;48.046;7.642;2023-04-03T13:46:53;3.10;;;1.80;;
2706;SDS011;7819;48.046;7.642;2023-04-03T13:51:53;2.33;;;1.70;;
2706;SDS011;7819;48.046;7.642;2023-04-03T13:54:20;4.00;;;2.27;;
2706;SDS011;7819;48.046;7.642;2023-04-03T13:56:51;3.30;;;1.90;;
2706;SDS011;7819;48.046;7.642;2023-04-03T14:01:47;2.70;;;1.77;;
2706;SDS011;7819;48.046;7.642;2023-04-03T14:04:18;1.97;;;1.80;;
2706;SDS011;7819;48.046;7.642;2023-04-03T14:06:45;2.07;;;1.70;;
2706;SDS011;7819;48.046;7.642;2023-04-03T14:09:10;3.30;;;2.27;;
2706;SDS011;7819;48.046;7.642;2023-04-03T14:11:36;3.83;;;1.83;;
2706;SDS011;7819;48.046;7.642;2023-04-03T14:14:03;2.00;;;1.70;;
2706;SDS011;7819;48.046;7.642;2023-04-03T14:16:30;2.00;;;1.80;;
2706;SDS011;7819;48.046;7.642;2023-04-03T14:18:57;1.97;;;1.70;;
2706;SDS011;7819;48.046;7.642;2023-04-03T14:21:22;1.90;;;1.70;;
2706;SDS011;7819;48.046;7.642;2023-04-03T14:23:48;5.30;;;2.80;;
2706;SDS011;7819;48.046;7.642;2023-04-03T14:26:14;2.70;;;2.20;;
2706;SDS011;7819;48.046;7.642;2023-04-03T14:28:41;1.77;;;1.37;;
2706;SDS011;7819;48.046;7.642;2023-04-03T14:31:06;2.57;;;1.87;;
2706;SDS011;7819;48.046;7.642;2023-04-03T14:33:32;2.13;;;1.90;;
2706;SDS011;7819;48.046;7.642;2023-04-03T14:35:59;2.70;;;1.80;;
2706;SDS011;7819;48.046;7.642;2023-04-03T14:38:26;2.40;;;2.20;;
2706;SDS011;7819;48.046;7.642;2023-04-03T14:40:52;3.27;;;2.40;;
2706;SDS011;7819;48.046;7.642;2023-04-03T14:43:17;3.10;;;2.80;;
2706;SDS011;7819;48.046;7.642;2023-04-03T14:45:43;3.17;;;2.40;;
2706;SDS011;7819;48.046;7.642;2023-04-03T14:48:10;2.50;;;2.07;;
2706;SDS011;7819;48.046;7.642;2023-04-03T14:50:37;2.37;;;2.17;;
2706;SDS011;7819;48.046;7.642;2023-04-03T14:53:03;3.07;;;2.63;;
2706;SDS011;7819;48.046;7.642;2023-04-03T14:55:28;2.30;;;2.10;;
2706;SDS011;7819;48.046;7.642;2023-04-03T14:57:53;2.63;;;2.20;;
2706;SDS011;7819;48.046;7.642;2023-04-03T15:00:19;2.13;;;1.93;;
2706;SDS011;7819;48.046;7.642;2023-04-03T15:02:45;3.00;;;1.97;;
2706;SDS011;7819;48.046;7.642;2023-04-03T15:05:11;9.80;;;3.30;;
2706;SDS011;7819;48.046;7.642;2023-04-03T15:07:37;3.70;;;2.53;;
2706;SDS011;7819;48.046;7.642;2023-04-03T15:10:06;5.50;;;4.17;;
2706;SDS011;7819;48.046;7.642;2023-04-03T15:12:38;3.70;;;3.33;;
2706;SDS011;7819;48.046;7.642;2023-04-03T15:15:03;4.00;;;3.17;;
2706;SDS011;7819;48.046;7.642;2023-04-03T15:17:29;3.03;;;2.73;;
2706;SDS011;7819;48.046;7.642;2023-04-03T15:19:54;2.80;;;2.10;;
2706;SDS011;7819;48.046;7.642;2023-04-03T15:22:19;3.23;;;2.90;;
2706;SDS011;7819;48.046;7.642;2023-04-03T15:24:44;2.70;;;2.50;;
2706;SDS011;7819;48.046;7.642;2023-04-03T15:27:10;2.70;;;2.50;;
2706;SDS011;7819;48.046;7.642;2023-04-03T15:29:36;6.90;;;1.90;;
2706;SDS011;7819;48.046;7.642;2023-04-03T15:32:02;3.33;;;2.43;;
2706;SDS011;7819;48.046;7.642;2023-04-03T15:34:27;2.30;;;2.00;;
2706;SDS011;7819;48.046;7.642;2023-04-03T15:36:52;3.07;;;2.60;;
2706;SDS011;7819;48.046;7.642;2023-04-03T15:39:17;3.40;;;2.10;;
2706;SDS011;7819;48.046;7.642;2023-04-03T15:41:43;4.50;;;2.13;;
2706;SDS011;7819;48.046;7.642;2023-04-03T15:44:08;2.10;;;1.90;;
2706;SDS011;7819;48.046;7.642;2023-04-03T15:46:34;3.20;;;2.00;;
2706;SDS011;7819;48.046;7.642;2023-04-03T15:48:59;2.53;;;2.17;;
2706;SDS011;7819;48.046;7.642;2023-04-03T15:51:24;5.50;;;2.83;;
2706;SDS011;7819;48.046;7.642;2023-04-03T15:53:49;3.87;;;3.07;;
2706;SDS011;7819;48.046;7.642;2023-04-03T15:56:15;4.63;;;3.13;;
2706;SDS011;7819;48.046;7.642;2023-04-03T15:58:40;2.93;;;2.33;;
2706;SDS011;7819;48.046;7.642;2023-04-03T16:01:06;4.33;;;2.67;;
2706;SDS011;7819;48.046;7.642;2023-04-03T16:03:31;2.90;;;2.53;;
2706;SDS011;7819;48.046;7.642;2023-04-03T16:05:56;3.87;;;2.67;;
2706;SDS011;7819;48.046;7.642;2023-04-03T16:08:22;2.33;;;2.13;;
2706;SDS011;7819;48.046;7.642;2023-04-03T16:10:47;3.37;;;2.60;;
2706;SDS011;7819;48.046;7.642;2023-04-03T16:13:13;2.23;;;2.03;;
2706;SDS011;7819;48.046;7.642;2023-04-03T16:15:38;2.50;;;1.93;;
2706;SDS011;7819;48.046;7.642;2023-04-03T16:18:04;3.40;;;2.07;;
2706;SDS011;7819;48.046;7.642;2023-04-03T16:20:29;2.63;;;2.30;;
2706;SDS011;7819;48.046;7.642;2023-04-03T16:22:55;3.60;;;2.50;;
2706;SDS011;7819;48.046;7.642;2023-04-03T16:25:21;3.60;;;2.77;;
2706;SDS011;7819;48.046;7.642;2023-04-03T16:27:46;3.47;;;2.47;;
2706;SDS011;7819;48.046;7.642;2023-04-03T16:30:11;2.57;;;2.37;;
2706;SDS011;7819;48.046;7.642;2023-04-03T16:32:37;4.50;;;2.10;;
2706;SDS011;7819;48.046;7.642;2023-04-03T16:35:02;2.90;;;2.23;;
2706;SDS011;7819;48.046;7.642;2023-04-03T16:37:28;2.80;;;2.60;;
2706;SDS011;7819;48.046;7.642;2023-04-03T16:39:53;3.57;;;2.40;;
2706;SDS011;7819;48.046;7.642;2023-04-03T16:42:18;2.40;;;2.20;;
2706;SDS011;7819;48.046;7.642;2023-04-03T16:44:43;2.63;;;2.30;;
2706;SDS011;7819;48.046;7.642;2023-04-03T16:47:09;2.27;;;2.07;;
2706;SDS011;7819;48.046;7.642;2023-04-03T16:49:34;2.30;;;1.87;;